Time;durP1;ratioP1;P1;durP2;ratioP2;P2;SDS_P1;SDS_P2;PMS_P1;PMS_P2;Temp;Humidity;BMP_temperature;BMP_pressure;BME280_temperature;BME280_humidity;BME280_pressure;Samples;Min_cycle;Max_cycle;Signal;HPM_P1;HPM_P2
2022/05/30 00:01:10;;;;;;;;;;;;;;;16.27;79.85;97341.44;5082599;28;19928;-60
2022/05/30 00:03:37;;;;;;;;;;;;;;;16.20;79.90;97347.28;5062580;28;19927;-58
2022/05/30 00:06:06;;;;;;;;;;;;;;;16.20;80.23;97341.88;5079236;28;19988;-58
2022/05/30 00:08:34;;;;;;;;;;;;;;;16.18;80.67;97346.00;5063045;28;19952;-58
2022/05/30 00:11:01;;;;;;;;;;;;;;;16.18;80.81;97341.38;5082666;28;19924;-59
2022/05/30 00:13:28;;;;;;;;;;;;;;;16.24;80.69;97339.34;5086112;28;19924;-59
2022/05/30 00:15:54;;;;;;;;;;;;;;;16.24;80.82;97343.94;5079093;28;20689;-58
2022/05/30 00:18:20;;;;;;;;;;;;;;;16.19;80.87;97348.38;5079110;28;20019;-58
2022/05/30 00:20:49;;;;;;;;;;;;;;;16.20;80.99;97346.47;5082450;28;19925;-59
2022/05/30 00:23:15;;;;;;;;;;;;;;;16.22;80.74;97352.31;5082587;28;19925;-58
2022/05/30 00:25:43;;;;;;;;;;;;;;;16.20;81.04;97352.66;5061845;28;19924;-59
2022/05/30 00:28:10;;;;;;;;;;;;;;;16.21;80.91;97348.06;5079101;28;20047;-59
2022/05/30 00:30:36;;;;;;;;;;;;;;;16.24;80.84;97343.94;5081087;28;19991;-60
2022/05/30 00:33:03;;;;;;;;;;;;;;;16.17;81.27;97342.50;5082389;28;20036;-58
2022/05/30 00:35:29;;;;;;;;;;;;;;;16.22;81.23;97346.16;5080986;28;20174;-59
2022/05/30 00:37:56;;;;;;;;;;;;;;;16.19;81.46;97342.19;5078815;28;19997;-59
2022/05/30 00:40:22;;;;;;;;;;;;;;;16.19;81.64;97352.94;5079019;28;19932;-60
2022/05/30 00:42:50;;;;;;;;;;;;;;;16.19;81.82;97339.47;5086995;28;19951;-60
2022/05/30 00:45:16;;;;;;;;;;;;;;;16.16;81.84;97348.19;5082282;28;19988;-59
2022/05/30 00:47:43;;;;;;;;;;;;;;;16.14;82.28;97340.44;5079074;28;19947;-58
2022/05/30 00:50:10;;;;;;;;;;;;;;;16.16;82.43;97332.03;5078613;28;19953;-60
2022/05/30 00:52:39;;;;;;;;;;;;;;;16.17;82.43;97336.31;5080905;28;19963;-60
2022/05/30 00:55:07;;;;;;;;;;;;;;;16.13;82.56;97330.75;5082239;28;19956;-59
2022/05/30 00:57:34;;;;;;;;;;;;;;;16.09;82.86;97324.41;5080070;28;19966;-60
2022/05/30 01:00:08;;;;;;;;;;;;;;;15.98;83.88;97325.00;5078746;28;19996;-60
2022/05/30 01:02:36;;;;;;;;;;;;;;;15.90;84.60;97317.69;5080431;28;19921;-59
2022/05/30 01:07:48;;;;;;;;;;;;;;;15.95;84.84;97310.28;5078528;28;20135;-59
2022/05/30 01:10:17;;;;;;;;;;;;;;;15.94;84.63;97305.19;5078526;28;19925;-60
2022/05/30 01:12:49;;;;;;;;;;;;;;;15.97;85.07;97307.25;5086691;28;19976;-60
2022/05/30 01:15:18;;;;;;;;;;;;;;;15.99;85.11;97302.38;5081743;28;19947;-60
2022/05/30 01:17:52;;;;;;;;;;;;;;;15.99;85.07;97305.06;5082389;28;19956;-59
2022/05/30 01:20:36;;;;;;;;;;;;;;;15.99;85.18;97291.59;5082407;28;19992;-59
2022/05/30 01:23:35;;;;;;;;;;;;;;;15.88;85.64;97296.44;5082228;28;19929;-59
2022/05/30 01:26:08;;;;;;;;;;;;;;;15.87;85.87;97297.56;5074073;28;19963;-60
2022/05/30 01:28:40;;;;;;;;;;;;;;;15.87;85.91;97304.84;5073726;28;19925;-60
2022/05/30 01:31:07;;;;;;;;;;;;;;;15.86;86.28;97293.28;5073936;28;19956;-60
2022/05/30 01:33:33;;;;;;;;;;;;;;;15.86;85.63;97295.97;5073944;28;19985;-60
2022/05/30 01:36:00;;;;;;;;;;;;;;;15.83;86.33;97296.59;5073960;28;20122;-59
2022/05/30 01:38:27;;;;;;;;;;;;;;;15.88;86.03;97291.06;5073905;28;19948;-60
2022/05/30 01:40:54;;;;;;;;;;;;;;;15.85;86.60;97294.38;5073972;28;19939;-58
2022/05/30 01:43:20;;;;;;;;;;;;;;;15.83;85.91;97293.91;5086744;28;19984;-59
2022/05/30 01:45:51;;;;;;;;;;;;;;;15.80;86.57;97288.34;5081931;28;19992;-59
2022/05/30 01:48:17;;;;;;;;;;;;;;;15.77;86.80;97288.97;5081991;28;19960;-59
2022/05/30 01:50:45;;;;;;;;;;;;;;;15.76;86.95;97282.00;5084836;28;19953;-59
2022/05/30 01:53:12;;;;;;;;;;;;;;;15.81;86.39;97287.25;5085266;28;20649;-59
2022/05/30 01:55:38;;;;;;;;;;;;;;;15.77;86.74;97280.91;5082698;28;19947;-59
2022/05/30 01:58:05;;;;;;;;;;;;;;;15.73;87.05;97283.41;5081502;28;19955;-59
2022/05/30 02:00:33;;;;;;;;;;;;;;;15.70;87.38;97278.66;5082615;28;19994;-59
2022/05/30 02:03:00;;;;;;;;;;;;;;;15.70;87.27;97284.03;5084961;28;19928;-60
2022/05/30 02:05:27;;;;;;;;;;;;;;;15.70;87.34;97283.25;5083897;28;19927;-59
2022/05/30 02:07:56;;;;;;;;;;;;;;;15.70;87.33;97285.94;5081581;28;19951;-60
2022/05/30 02:10:22;;;;;;;;;;;;;;;15.72;86.87;97283.75;5081781;28;19935;-59
2022/05/30 02:12:49;;;;;;;;;;;;;;;15.71;87.00;97280.25;5085721;28;19956;-59
2022/05/30 02:15:15;;;;;;;;;;;;;;;15.72;86.86;97276.44;5080748;28;19967;-59
2022/05/30 02:17:40;;;;;;;;;;;;;;;15.63;87.07;97267.53;5081759;28;19956;-59
2022/05/30 02:20:09;;;;;;;;;;;;;;;15.68;86.89;97272.78;5063472;28;19936;-59
2022/05/30 02:22:36;;;;;;;;;;;;;;;15.64;86.66;97267.22;5082590;28;19956;-59
2022/05/30 02:25:03;;;;;;;;;;;;;;;15.57;87.22;97261.50;5084656;28;19925;-59
2022/05/30 02:27:29;;;;;;;;;;;;;;;15.57;87.46;97269.56;5083154;28;19927;-59
2022/05/30 02:29:57;;;;;;;;;;;;;;;15.58;87.57;97263.09;5080973;28;19921;-59
2022/05/30 02:32:23;;;;;;;;;;;;;;;15.52;87.78;97269.72;5081049;28;19925;-60
2022/05/30 02:37:35;;;;;;;;;;;;;;;15.52;88.20;97267.03;5097989;28;19921;-59
2022/05/30 02:40:01;;;;;;;;;;;;;;;15.52;87.67;97271.63;5080795;28;19956;-58
2022/05/30 02:42:28;;;;;;;;;;;;;;;15.53;87.65;97257.88;5086118;28;19963;-58
2022/05/30 02:44:54;;;;;;;;;;;;;;;15.46;88.29;97262.06;5083977;28;19935;-59
2022/05/30 02:47:21;;;;;;;;;;;;;;;15.42;88.44;97266.47;5083966;28;19963;-58
2022/05/30 02:49:47;;;;;;;;;;;;;;;15.25;89.58;97269.88;5080226;28;19974;-58
2022/05/30 02:52:13;;;;;;;;;;;;;;;14.87;91.68;97274.03;5080498;28;19931;-58
2022/05/30 02:54:41;;;;;;;;;;;;;;;14.90;92.98;97271.53;5083293;28;19925;-59
2022/05/30 02:57:08;;;;;;;;;;;;;;;15.05;91.66;97263.09;5083853;28;19931;-59
2022/05/30 02:59:35;;;;;;;;;;;;;;;15.13;90.61;97269.66;5081536;28;19924;-58
2022/05/30 03:02:02;;;;;;;;;;;;;;;15.12;90.39;97274.22;5080053;28;19929;-59
2022/05/30 03:04:28;;;;;;;;;;;;;;;15.17;90.46;97272.50;5081114;28;19924;-59
2022/05/30 03:06:55;;;;;;;;;;;;;;;15.21;90.16;97274.28;5083704;28;19988;-58
2022/05/30 03:09:21;;;;;;;;;;;;;;;15.23;89.69;97279.31;5083359;28;19935;-58
2022/05/30 03:11:49;;;;;;;;;;;;;;;14.91;91.02;97278.53;5080155;28;19932;-59
2022/05/30 03:14:15;;;;;;;;;;;;;;;14.98;92.03;97278.88;5075904;28;19925;-59
2022/05/30 03:16:41;;;;;;;;;;;;;;;15.09;90.83;97269.47;5082538;28;19979;-59
2022/05/30 03:19:08;;;;;;;;;;;;;;;15.19;90.01;97278.38;5083383;28;19947;-59
2022/05/30 03:21:34;;;;;;;;;;;;;;;15.24;89.36;97270.16;5081231;28;19920;-59
2022/05/30 03:24:01;;;;;;;;;;;;;;;15.27;88.85;97275.72;5079781;28;19924;-59
2022/05/30 03:26:27;;;;;;;;;;;;;;;15.25;89.04;97269.06;5080364;28;19948;-59
2022/05/30 03:28:55;;;;;;;;;;;;;;;15.19;89.56;97273.78;5083028;28;20688;-59
2022/05/30 03:31:21;;;;;;;;;;;;;;;15.17;89.50;97275.19;5083110;28;19924;-59
2022/05/30 03:33:47;;;;;;;;;;;;;;;15.17;89.40;97275.97;5078687;28;19997;-59
2022/05/30 03:36:15;;;;;;;;;;;;;;;15.20;89.27;97280.75;5079535;28;19925;-59
2022/05/30 03:38:41;;;;;;;;;;;;;;;15.22;88.95;97277.75;5082263;28;19982;-59
2022/05/30 03:41:08;;;;;;;;;;;;;;;15.22;88.71;97278.56;5082684;28;20312;-59
2022/05/30 03:43:34;;;;;;;;;;;;;;;15.23;88.60;97277.44;5084675;28;19927;-59
2022/05/30 03:46:02;;;;;;;;;;;;;;;15.20;88.47;97288.00;5078524;28;19925;-58
2022/05/30 03:48:28;;;;;;;;;;;;;;;15.16;88.81;97284.38;5061545;28;19968;-58
2022/05/30 03:50:55;;;;;;;;;;;;;;;15.17;88.86;97283.25;5081719;28;19964;-58
2022/05/30 03:53:21;;;;;;;;;;;;;;;15.12;89.12;97279.59;5081630;28;19932;-58
2022/05/30 03:55:47;;;;;;;;;;;;;;;15.07;89.63;97285.09;5060292;28;19996;-58
2022/05/30 03:58:14;;;;;;;;;;;;;;;15.06;89.57;97296.16;5078369;28;19929;-58
2022/05/30 04:00:42;;;;;;;;;;;;;;;15.05;89.96;97297.25;5080920;28;19925;-58
2022/05/30 04:03:09;;;;;;;;;;;;;;;15.08;89.57;97300.13;5081619;28;19924;-58
2022/05/30 04:05:36;;;;;;;;;;;;;;;15.08;90.44;97310.09;5079229;28;19950;-58
2022/05/30 04:08:03;;;;;;;;;;;;;;;15.11;90.28;97304.91;5077785;28;19925;-58
2022/05/30 04:10:29;;;;;;;;;;;;;;;15.10;90.46;97302.53;5079053;28;19984;-58
2022/05/30 04:13:02;;;;;;;;;;;;;;;14.66;94.15;97306.00;5081603;28;20005;-58
2022/05/30 04:15:28;;;;;;;;;;;;;;;14.77;93.95;97310.03;5078048;28;19924;-58
2022/05/30 04:17:54;;;;;;;;;;;;;;;14.74;94.23;97310.63;5078060;28;20000;-57
2022/05/30 04:20:22;;;;;;;;;;;;;;;14.84;93.84;97321.16;5078147;28;20388;-58
2022/05/30 04:22:49;;;;;;;;;;;;;;;14.80;94.24;97314.00;5077994;28;20689;-58
2022/05/30 04:25:15;;;;;;;;;;;;;;;14.65;95.07;97319.72;5077885;28;19932;-58
2022/05/30 04:27:41;;;;;;;;;;;;;;;14.51;96.49;97309.03;5080734;28;19968;-58
2022/05/30 04:30:09;;;;;;;;;;;;;;;14.59;95.94;97319.84;5081457;28;19924;-58
2022/05/30 04:32:36;;;;;;;;;;;;;;;14.78;94.42;97324.25;5078908;28;19920;-58
2022/05/30 04:35:03;;;;;;;;;;;;;;;14.88;93.93;97321.34;5077685;28;19925;-58
2022/05/30 04:37:31;;;;;;;;;;;;;;;14.78;94.05;97327.75;5078487;28;19931;-58
2022/05/30 04:39:57;;;;;;;;;;;;;;;14.61;95.30;97324.91;5081113;28;19960;-58
2022/05/30 04:42:23;;;;;;;;;;;;;;;14.22;100.00;97324.66;5081003;28;19963;-58
2022/05/30 04:44:50;;;;;;;;;;;;;;;14.33;99.99;97326.84;5080808;28;19921;-58
2022/05/30 04:47:18;;;;;;;;;;;;;;;14.53;99.16;97328.31;5080741;28;19924;-58
2022/05/30 04:49:46;;;;;;;;;;;;;;;13.87;100.00;97335.00;5077416;28;19956;-58
2022/05/30 04:52:13;;;;;;;;;;;;;;;13.70;100.00;97329.44;5077510;28;19992;-58
2022/05/30 04:54:41;;;;;;;;;;;;;;;14.11;100.00;97337.50;5061950;28;19991;-58
2022/05/30 04:57:07;;;;;;;;;;;;;;;14.20;100.00;97332.22;5081326;28;20011;-59
2022/05/30 04:59:34;;;;;;;;;;;;;;;13.85;100.00;97331.81;5079206;28;20427;-58
2022/05/30 05:02:01;;;;;;;;;;;;;;;13.84;100.00;97343.66;5077689;28;20004;-58
2022/05/30 05:04:27;;;;;;;;;;;;;;;13.53;100.00;97334.56;5078386;28;20445;-59
2022/05/30 05:06:54;;;;;;;;;;;;;;;13.24;100.00;97331.31;5080895;28;19931;-58
2022/05/30 05:09:25;;;;;;;;;;;;;;;13.47;100.00;97333.06;5080857;28;19921;-58
2022/05/30 05:11:53;;;;;;;;;;;;;;;13.96;100.00;97332.41;5069883;28;19951;-58
2022/05/30 05:14:19;;;;;;;;;;;;;;;14.25;100.00;97340.16;5072744;28;20027;-58
2022/05/30 05:16:45;;;;;;;;;;;;;;;14.13;100.00;97334.50;5080470;28;19987;-58
2022/05/30 05:19:11;;;;;;;;;;;;;;;14.32;100.00;97325.25;5080657;28;19984;-59
2022/05/30 05:21:39;;;;;;;;;;;;;;;14.20;100.00;97337.59;5078048;28;19935;-58
2022/05/30 05:24:07;;;;;;;;;;;;;;;14.56;100.00;97331.19;5076990;28;19943;-58
2022/05/30 05:26:34;;;;;;;;;;;;;;;14.78;100.00;97333.13;5078771;28;19979;-58
2022/05/30 05:29:02;;;;;;;;;;;;;;;14.79;100.00;97328.53;5080537;28;19920;-59
2022/05/30 05:31:31;;;;;;;;;;;;;;;14.31;100.00;97326.31;5079436;28;19970;-58
2022/05/30 05:33:58;;;;;;;;;;;;;;;14.73;100.00;97335.91;5076966;28;19925;-58
2022/05/30 05:36:26;;;;;;;;;;;;;;;14.67;100.00;97331.75;5077474;28;20088;-58
2022/05/30 05:38:53;;;;;;;;;;;;;;;14.74;100.00;97332.13;5080583;28;19956;-59
2022/05/30 05:41:20;;;;;;;;;;;;;;;14.42;100.00;97343.06;5080545;28;19925;-59
2022/05/30 05:43:47;;;;;;;;;;;;;;;14.19;100.00;97354.78;5081658;28;19925;-59
2022/05/30 05:46:15;;;;;;;;;;;;;;;14.51;100.00;97350.09;5076915;28;19993;-59
2022/05/30 05:48:42;;;;;;;;;;;;;;;14.58;100.00;97357.75;5079371;28;19928;-59
2022/05/30 05:51:08;;;;;;;;;;;;;;;14.33;100.00;97359.06;5080536;28;19935;-59
2022/05/30 05:53:35;;;;;;;;;;;;;;;14.13;100.00;97359.47;5078408;28;19925;-60
2022/05/30 05:56:09;;;;;;;;;;;;;;;14.22;100.00;97359.56;5077381;28;19971;-59
2022/05/30 05:58:36;;;;;;;;;;;;;;;14.36;100.00;97357.72;5081997;28;19983;-59
2022/05/30 06:01:06;;;;;;;;;;;;;;;14.29;100.00;97362.66;5084134;28;19924;-59
2022/05/30 06:03:33;;;;;;;;;;;;;;;13.95;100.00;97361.16;5082492;28;19963;-59
2022/05/30 06:05:59;;;;;;;;;;;;;;;14.51;100.00;97360.06;5080483;28;20016;-59
2022/05/30 06:08:26;;;;;;;;;;;;;;;14.86;100.00;97351.22;5080829;28;19952;-59
2022/05/30 06:13:32;;;;;;;;;;;;;;;15.17;100.00;97356.66;5075781;28;19929;-59
2022/05/30 06:15:59;;;;;;;;;;;;;;;15.00;100.00;97357.34;5080177;28;19924;-59
2022/05/30 06:18:26;;;;;;;;;;;;;;;15.25;100.00;97350.56;5080670;28;20104;-59
2022/05/30 06:20:59;;;;;;;;;;;;;;;14.69;100.00;97350.28;5083384;28;19928;-59
2022/05/30 06:23:25;;;;;;;;;;;;;;;14.40;100.00;97359.47;5083117;28;19924;-59
2022/05/30 06:25:52;;;;;;;;;;;;;;;14.13;100.00;97364.03;5080177;28;19991;-59
2022/05/30 06:28:19;;;;;;;;;;;;;;;14.06;100.00;97361.75;5080102;28;19953;-59
2022/05/30 06:30:45;;;;;;;;;;;;;;;14.71;100.00;97365.00;5083264;28;19962;-59
2022/05/30 06:33:11;;;;;;;;;;;;;;;14.49;100.00;97368.41;5083400;28;19991;-58
2022/05/30 06:35:40;;;;;;;;;;;;;;;14.32;100.00;97373.59;5081070;28;19959;-59
2022/05/30 06:38:09;;;;;;;;;;;;;;;13.89;100.00;97375.78;5079982;28;19924;-59
2022/05/30 06:40:35;;;;;;;;;;;;;;;13.79;100.00;97375.16;5081500;28;19936;-59
2022/05/30 06:43:01;;;;;;;;;;;;;;;13.73;100.00;97371.78;5088045;28;20427;-59
2022/05/30 06:45:28;;;;;;;;;;;;;;;14.08;100.00;97378.34;5082069;28;20026;-59
2022/05/30 06:47:54;;;;;;;;;;;;;;;13.70;100.00;97380.41;5079520;28;19925;-58
2022/05/30 06:50:21;;;;;;;;;;;;;;;13.57;100.00;97377.69;5079581;28;19954;-58
2022/05/30 06:52:47;;;;;;;;;;;;;;;13.77;100.00;97383.47;5071217;28;19964;-58
2022/05/30 06:55:15;;;;;;;;;;;;;;;13.44;100.00;97388.09;5071236;28;19924;-58
2022/05/30 07:00:25;;;;;;;;;;;;;;;13.33;100.00;97384.00;5071083;28;19996;-58
2022/05/30 07:02:52;;;;;;;;;;;;;;;13.81;100.00;97384.50;5071006;28;19953;-58
2022/05/30 07:05:18;;;;;;;;;;;;;;;14.37;100.00;97376.19;5071066;28;19936;-59
2022/05/30 07:07:45;;;;;;;;;;;;;;;14.50;100.00;97379.97;5070956;28;19987;-59
2022/05/30 07:10:12;;;;;;;;;;;;;;;14.47;100.00;97381.38;5071234;28;19992;-59
2022/05/30 07:12:40;;;;;;;;;;;;;;;14.80;100.00;97381.19;5077991;28;19934;-59
2022/05/30 07:15:07;;;;;;;;;;;;;;;14.27;100.00;97380.94;5082789;28;19967;-59
2022/05/30 07:17:33;;;;;;;;;;;;;;;14.00;100.00;97377.16;5080861;28;19925;-59
2022/05/30 07:20:00;;;;;;;;;;;;;;;14.27;100.00;97380.94;5079086;28;19971;-59
2022/05/30 07:22:27;;;;;;;;;;;;;;;14.58;100.00;97385.41;5079745;28;20016;-59
2022/05/30 07:24:53;;;;;;;;;;;;;;;14.24;100.00;97381.53;5082382;28;19959;-59
2022/05/30 07:27:19;;;;;;;;;;;;;;;14.20;100.00;97389.41;5082411;28;20003;-62
2022/05/30 07:29:47;;;;;;;;;;;;;;;13.94;100.00;97393.66;5060994;28;19964;-59
2022/05/30 07:32:13;;;;;;;;;;;;;;;13.94;100.00;97394.47;5078958;28;19925;-59
2022/05/30 07:34:40;;;;;;;;;;;;;;;13.84;100.00;97391.97;5081139;28;19925;-59
2022/05/30 07:37:06;;;;;;;;;;;;;;;14.22;100.00;97389.09;5082253;28;19967;-59
2022/05/30 07:39:35;;;;;;;;;;;;;;;14.18;100.00;97391.59;5080508;28;19924;-59
2022/05/30 07:42:06;;;;;;;;;;;;;;;14.31;100.00;97387.31;5080908;28;19976;-59
2022/05/30 07:44:33;;;;;;;;;;;;;;;14.41;100.00;97392.50;5081814;28;19931;-59
2022/05/30 07:47:01;;;;;;;;;;;;;;;14.23;100.00;97385.34;5082217;28;19988;-59
2022/05/30 07:49:27;;;;;;;;;;;;;;;13.76;100.00;97381.91;5062930;28;19924;-58
2022/05/30 07:51:54;;;;;;;;;;;;;;;14.28;100.00;97387.91;5078619;28;19921;-59
2022/05/30 07:54:21;;;;;;;;;;;;;;;14.61;100.00;97386.69;5078432;28;19947;-59
2022/05/30 07:56:48;;;;;;;;;;;;;;;14.42;100.00;97394.13;5078376;28;20028;-59
2022/05/30 07:59:14;;;;;;;;;;;;;;;14.48;100.00;97382.94;5078199;28;19925;-58
2022/05/30 08:01:40;;;;;;;;;;;;;;;14.38;100.00;97387.75;5062669;28;19981;-59
2022/05/30 08:04:13;;;;;;;;;;;;;;;14.52;100.00;97383.13;5081674;28;19931;-58
2022/05/30 08:06:39;;;;;;;;;;;;;;;14.97;100.00;97374.09;5079113;28;19968;-58
2022/05/30 08:09:06;;;;;;;;;;;;;;;15.65;100.00;97378.41;5078161;28;19961;-58
2022/05/30 08:11:32;;;;;;;;;;;;;;;15.35;100.00;97384.50;5079443;28;19988;-58
2022/05/30 08:13:59;;;;;;;;;;;;;;;15.35;100.00;97374.50;5084535;28;20016;-58
2022/05/30 08:16:26;;;;;;;;;;;;;;;15.49;100.00;97375.28;5078533;28;19924;-59
2022/05/30 08:18:52;;;;;;;;;;;;;;;16.52;99.52;97380.31;5063492;28;20033;-58
2022/05/30 08:21:20;;;;;;;;;;;;;;;16.27;95.92;97375.66;5080979;28;19934;-58
2022/05/30 08:23:47;;;;;;;;;;;;;;;16.40;96.25;97377.44;5078019;28;20317;-58
2022/05/30 08:26:14;;;;;;;;;;;;;;;15.74;97.71;97373.84;5078048;28;20068;-58
2022/05/30 08:28:40;;;;;;;;;;;;;;;15.73;96.75;97374.16;5080548;28;20367;-59
2022/05/30 08:31:08;;;;;;;;;;;;;;;15.75;97.23;97377.34;5081432;28;19925;-58
2022/05/30 08:33:35;;;;;;;;;;;;;;;16.05;96.91;97376.53;5079196;28;20019;-59
2022/05/30 08:36:03;;;;;;;;;;;;;;;16.44;97.18;97373.78;5077975;28;19924;-59
2022/05/30 08:38:33;;;;;;;;;;;;;;;16.01;95.27;97376.34;5079039;28;19967;-59
2022/05/30 08:43:48;;;;;;;;;;;;;;;15.98;93.36;97368.88;5082594;28;19982;-59
2022/05/30 08:46:21;;;;;;;;;;;;;;;16.64;94.47;97373.25;5077595;28;19924;-60
2022/05/30 08:48:54;;;;;;;;;;;;;;;17.17;90.30;97359.47;5069071;28;19953;-57
2022/05/30 08:51:43;;;;;;;;;;;;;;;17.87;83.91;97363.66;5069443;28;19924;-57
2022/05/30 08:54:19;;;;;;;;;;;;;;;17.48;83.53;97358.50;5069390;28;20000;-58
2022/05/30 08:56:48;;;;;;;;;;;;;;;17.40;76.99;97356.56;5080932;28;19932;-58
2022/05/30 08:59:25;;;;;;;;;;;;;;;17.61;79.68;97363.72;5081188;28;19936;-58
2022/05/30 09:01:55;;;;;;;;;;;;;;;17.44;68.83;97362.94;5077592;28;19935;-57
2022/05/30 09:04:24;;;;;;;;;;;;;;;18.03;69.86;97363.91;5077536;28;19968;-58
2022/05/30 09:06:53;;;;;;;;;;;;;;;17.95;67.73;97362.06;5069231;28;20687;-58
2022/05/30 09:09:23;;;;;;;;;;;;;;;18.41;70.16;97366.59;5051478;28;19965;-58
2022/05/30 09:11:52;;;;;;;;;;;;;;;17.76;64.95;97359.72;5072774;28;19960;-59
2022/05/30 09:14:20;;;;;;;;;;;;;;;17.31;66.58;97359.28;5073210;28;19948;-59
2022/05/30 09:16:52;;;;;;;;;;;;;;;16.98;63.37;97359.00;5077483;28;19932;-59
2022/05/30 09:19:21;;;;;;;;;;;;;;;16.87;67.83;97355.03;5060251;28;19955;-60
2022/05/30 09:21:47;;;;;;;;;;;;;;;16.91;63.75;97355.97;5080828;28;19924;-59
2022/05/30 09:24:16;;;;;;;;;;;;;;;17.68;61.30;97357.81;5080967;28;19924;-59
2022/05/30 09:26:44;;;;;;;;;;;;;;;17.80;59.99;97349.84;5077202;28;19992;-59
2022/05/30 09:29:12;;;;;;;;;;;;;;;17.89;55.79;97352.53;5077359;28;19928;-59
2022/05/30 09:31:45;;;;;;;;;;;;;;;16.88;56.23;97345.81;5069162;28;19956;-59
2022/05/30 09:34:30;;;;;;;;;;;;;;;17.16;59.17;97349.78;5072836;28;19925;-59
2022/05/30 09:36:57;;;;;;;;;;;;;;;17.54;58.24;97355.31;5072929;28;19925;-59
2022/05/30 09:39:24;;;;;;;;;;;;;;;17.14;56.43;97352.00;5072732;28;19960;-59
2022/05/30 09:41:54;;;;;;;;;;;;;;;17.33;57.97;97348.97;5073406;28;19967;-59
2022/05/30 09:44:25;;;;;;;;;;;;;;;17.78;58.49;97343.97;5084551;28;20024;-59
2022/05/30 09:46:52;;;;;;;;;;;;;;;17.71;56.52;97344.47;5084420;28;19925;-59
2022/05/30 09:49:20;;;;;;;;;;;;;;;17.55;54.92;97338.00;5083495;28;19956;-58
2022/05/30 09:51:47;;;;;;;;;;;;;;;17.64;55.32;97343.41;5080983;28;19932;-58
2022/05/30 09:54:34;;;;;;;;;;;;;;;17.01;46.66;97344.88;5081048;28;19980;-59
2022/05/30 09:57:05;;;;;;;;;;;;;;;16.62;48.99;97345.78;5084352;28;19960;-58
2022/05/30 09:59:34;;;;;;;;;;;;;;;16.43;49.76;97349.88;5081633;28;19924;-59
2022/05/30 10:02:01;;;;;;;;;;;;;;;16.56;49.11;97338.97;5080508;28;19979;-60
2022/05/30 10:04:34;;;;;;;;;;;;;;;17.24;51.25;97335.47;5082490;28;19931;-59
2022/05/30 10:07:05;;;;;;;;;;;;;;;17.35;48.67;97348.66;5084118;28;19952;-59
2022/05/30 10:09:33;;;;;;;;;;;;;;;17.39;48.35;97347.72;5081199;28;19955;-59
2022/05/30 10:12:00;;;;;;;;;;;;;;;17.56;49.49;97346.91;5082365;28;19924;-59
2022/05/30 10:14:32;;;;;;;;;;;;;;;17.66;49.42;97341.16;5084159;28;19968;-58
2022/05/30 10:17:01;;;;;;;;;;;;;;;17.64;47.91;97338.00;5084558;28;20004;-58
2022/05/30 10:19:28;;;;;;;;;;;;;;;17.37;50.07;97336.44;5082518;28;19996;-58
2022/05/30 10:30:29;;;;;;;;;;;;;;;17.57;48.67;97343.09;5082776;28;19963;-59
2022/05/30 10:33:03;;;;;;;;;;;;;;;17.70;48.05;97339.41;5080803;28;19979;-60
2022/05/30 10:35:34;;;;;;;;;;;;;;;17.71;46.22;97332.88;5082596;28;19960;-60
2022/05/30 10:38:16;;;;;;;;;;;;;;;17.72;45.12;97334.47;5084145;28;19964;-60
2022/05/30 10:40:48;;;;;;;;;;;;;;;17.80;46.26;97339.84;5080366;28;19984;-60
2022/05/30 10:43:18;;;;;;;;;;;;;;;17.71;47.86;97336.38;5070493;28;19920;-60
2022/05/30 10:45:49;;;;;;;;;;;;;;;17.62;49.01;97337.50;5062707;28;19925;-60
2022/05/30 10:48:19;;;;;;;;;;;;;;;17.56;49.67;97333.41;5080688;28;19951;-59
2022/05/30 10:50:53;;;;;;;;;;;;;;;17.57;49.97;97335.78;5083640;28;19932;-60
2022/05/30 10:53:25;;;;;;;;;;;;;;;17.53;50.61;97336.72;5082920;28;19924;-60
2022/05/30 10:55:52;;;;;;;;;;;;;;;17.48;49.61;97326.09;5080417;28;19931;-60
2022/05/30 10:58:24;;;;;;;;;;;;;;;17.40;47.43;97324.97;5081249;28;19988;-59
2022/05/30 11:00:52;;;;;;;;;;;;;;;17.35;47.82;97324.38;5066025;28;19952;-59
2022/05/30 11:03:23;;;;;;;;;;;;;;;17.56;48.88;97325.28;5083043;28;19925;-60
2022/05/30 11:05:52;;;;;;;;;;;;;;;17.30;46.68;97329.94;5080093;28;19984;-60
2022/05/30 11:08:22;;;;;;;;;;;;;;;17.27;45.86;97321.34;5080752;28;19925;-59
2022/05/30 11:10:50;;;;;;;;;;;;;;;17.56;45.30;97336.91;5083428;28;19931;-59
2022/05/30 11:13:21;;;;;;;;;;;;;;;17.57;45.14;97335.00;5086809;28;19960;-59
2022/05/30 11:15:49;;;;;;;;;;;;;;;17.74;44.65;97319.53;5079979;28;19928;-58
2022/05/30 11:18:21;;;;;;;;;;;;;;;17.77;44.59;97329.69;5080247;28;19967;-58
2022/05/30 11:20:54;;;;;;;;;;;;;;;18.02;45.42;97332.59;5083145;28;19929;-58
2022/05/30 11:23:21;;;;;;;;;;;;;;;18.14;44.61;97322.69;5082269;28;19931;-58
2022/05/30 11:26:04;;;;;;;;;;;;;;;18.51;46.56;97320.28;5079855;28;19988;-59
2022/05/30 11:28:35;;;;;;;;;;;;;;;18.66;46.62;97322.41;5081956;28;19932;-59
2022/05/30 11:31:06;;;;;;;;;;;;;;;18.90;47.98;97327.97;5083168;28;19970;-59
2022/05/30 11:33:47;;;;;;;;;;;;;;;18.58;44.52;97328.66;5080405;28;19924;-59
2022/05/30 11:36:31;;;;;;;;;;;;;;;18.53;44.22;97320.75;5079589;28;19997;-59
2022/05/30 11:39:03;;;;;;;;;;;;;;;18.42;41.17;97333.03;5078738;28;19970;-59
2022/05/30 11:41:42;;;;;;;;;;;;;;;17.94;40.08;97333.44;5081776;28;19929;-60
2022/05/30 11:44:24;;;;;;;;;;;;;;;18.17;41.74;97327.44;5065803;28;19931;-59
2022/05/30 11:46:55;;;;;;;;;;;;;;;18.40;41.55;97327.16;5079592;28;19971;-59
2022/05/30 11:49:29;;;;;;;;;;;;;;;18.90;43.50;97336.09;5062541;28;19935;-59
2022/05/30 11:52:00;;;;;;;;;;;;;;;18.98;41.09;97321.69;5082838;28;19996;-59
2022/05/30 11:54:41;;;;;;;;;;;;;;;18.62;39.82;97332.31;5080227;28;19952;-60
2022/05/30 11:57:13;;;;;;;;;;;;;;;18.46;40.31;97328.56;5079078;28;19924;-59
2022/05/30 11:59:51;;;;;;;;;;;;;;;18.54;41.73;97335.84;5078854;28;19925;-59
2022/05/30 12:02:20;;;;;;;;;;;;;;;18.80;41.79;97328.34;5079439;28;19929;-59
2022/05/30 12:05:02;;;;;;;;;;;;;;;18.72;40.80;97319.16;5082563;28;19928;-59
2022/05/30 12:07:43;;;;;;;;;;;;;;;18.66;39.18;97327.84;5046995;28;19930;-60
2022/05/30 12:10:16;;;;;;;;;;;;;;;18.48;39.16;97321.69;5078964;28;19952;-60
2022/05/30 12:12:48;;;;;;;;;;;;;;;18.82;39.22;97326.09;5082668;28;19960;-60
2022/05/30 12:15:26;;;;;;;;;;;;;;;19.02;40.90;97328.03;5064391;28;19991;-61
2022/05/30 12:23:50;;;;;;;;;;;;;;;19.14;38.68;97317.25;5078934;28;19964;-60
2022/05/30 12:26:17;;;;;;;;;;;;;;;19.12;38.85;97318.72;5079251;28;19932;-60
2022/05/30 12:28:54;;;;;;;;;;;;;;;19.12;39.46;97324.91;5082406;28;20047;-59
2022/05/30 12:31:40;;;;;;;;;;;;;;;19.06;41.42;97326.25;5081333;28;19925;-58
2022/05/30 12:34:07;;;;;;;;;;;;;;;19.40;40.76;97325.16;5078944;28;19931;-59
2022/05/30 12:36:38;;;;;;;;;;;;;;;19.22;38.92;97329.91;5081370;28;19969;-59
2022/05/30 12:39:26;;;;;;;;;;;;;;;19.10;39.83;97320.94;5082286;28;19931;-59
2022/05/30 12:41:56;;;;;;;;;;;;;;;19.20;38.56;97326.75;5079527;28;19933;-59
2022/05/30 12:44:24;;;;;;;;;;;;;;;19.36;40.65;97322.28;5082189;28;19925;-60
2022/05/30 12:46:52;;;;;;;;;;;;;;;19.51;39.13;97326.31;5082131;28;19924;-60
2022/05/30 12:49:30;;;;;;;;;;;;;;;19.74;40.17;97324.00;5081136;28;19995;-59
2022/05/30 12:52:01;;;;;;;;;;;;;;;19.44;40.28;97314.44;5078622;28;19996;-60
2022/05/30 12:54:44;;;;;;;;;;;;;;;19.80;39.23;97325.38;5080451;28;19971;-60
2022/05/30 12:57:31;;;;;;;;;;;;;;;20.01;37.59;97319.84;5082107;28;19931;-59
2022/05/30 13:00:03;;;;;;;;;;;;;;;19.80;40.29;97328.06;5073444;28;19971;-59
2022/05/30 13:02:46;;;;;;;;;;;;;;;20.12;38.10;97320.97;5080613;28;20019;-60
2022/05/30 13:05:23;;;;;;;;;;;;;;;20.14;40.19;97327.66;5082169;28;20007;-60
2022/05/30 13:07:49;;;;;;;;;;;;;;;19.64;40.83;97325.22;5082297;28;20342;-60
2022/05/30 13:10:17;;;;;;;;;;;;;;;19.64;41.30;97322.50;5082964;28;19967;-60
2022/05/30 13:12:53;;;;;;;;;;;;;;;19.93;38.95;97326.94;5089773;28;19943;-59
2022/05/30 13:15:26;;;;;;;;;;;;;;;19.94;37.37;97320.41;5084928;28;19925;-60
2022/05/30 13:17:59;;;;;;;;;;;;;;;19.45;39.67;97314.09;5082307;28;19970;-60
2022/05/30 13:20:28;;;;;;;;;;;;;;;19.72;40.77;97321.63;5083633;28;19921;-60